createdAt,value
2023-03-14T00:00:43.969Z,35.10
2023-03-14T00:01:43.933Z,34.30
2023-03-14T00:02:43.951Z,34.80
2023-03-14T00:03:43.945Z,34.70
2023-03-14T00:04:43.897Z,33.00
2023-03-14T00:05:43.911Z,32.20
2023-03-14T00:06:43.879Z,33.60
2023-03-14T00:07:43.843Z,31.10
2023-03-14T00:08:43.853Z,31.40
2023-03-14T00:09:43.855Z,33.40
2023-03-14T00:10:43.835Z,31.00
2023-03-14T00:11:43.842Z,30.70
2023-03-14T00:12:43.790Z,31.70
2023-03-14T00:13:43.853Z,28.60
2023-03-14T00:14:43.768Z,30.00
2023-03-14T00:15:43.839Z,29.80
2023-03-14T00:16:43.758Z,27.90
2023-03-14T00:17:43.792Z,29.70
2023-03-14T00:18:43.834Z,29.90
2023-03-14T00:19:43.728Z,26.00
2023-03-14T00:20:43.842Z,26.80
2023-03-14T00:21:43.760Z,27.40
2023-03-14T00:22:43.707Z,27.40
2023-03-14T00:23:43.733Z,27.50
2023-03-14T00:24:43.787Z,28.00
2023-03-14T00:25:43.774Z,26.60
2023-03-14T00:26:43.688Z,26.80
2023-03-14T00:27:43.684Z,27.30
2023-03-14T00:28:43.646Z,27.10
2023-03-14T00:29:43.658Z,29.10
2023-03-14T00:30:43.784Z,28.30
2023-03-14T00:31:43.670Z,26.70
2023-03-14T00:34:59.438Z,25.20
2023-03-14T00:36:08.045Z,25.40
2023-03-14T00:37:07.873Z,25.10
2023-03-14T00:38:08.969Z,26.40
2023-03-14T00:39:00.418Z,24.50
2023-03-14T00:40:00.405Z,26.20
2023-03-14T00:41:00.370Z,25.90
2023-03-14T00:42:00.346Z,24.50
2023-03-14T00:43:00.324Z,25.10
2023-03-14T00:44:00.384Z,25.90
2023-03-14T00:45:00.290Z,25.10
2023-03-14T00:50:45.445Z,24.30
2023-03-14T00:51:46.400Z,25.40
2023-03-14T00:52:46.423Z,25.80
2023-03-14T00:53:46.491Z,26.20
2023-03-14T00:54:46.363Z,25.10
2023-03-14T00:55:46.373Z,27.70
2023-03-14T00:56:46.376Z,25.60
2023-03-14T00:57:46.343Z,26.80
2023-03-14T00:58:46.353Z,26.70
2023-03-14T00:59:46.385Z,27.20
2023-03-14T01:00:46.363Z,28.10
2023-03-14T01:01:46.352Z,28.60
2023-03-14T01:02:46.391Z,28.50
2023-03-14T01:03:46.389Z,30.70
2023-03-14T01:04:46.264Z,28.20
2023-03-14T01:05:46.342Z,29.50
2023-03-14T01:06:46.260Z,33.30
2023-03-14T01:07:46.253Z,34.20
2023-03-14T01:08:46.308Z,33.00
2023-03-14T01:09:46.212Z,32.80
2023-03-14T01:10:46.229Z,33.20
2023-03-14T01:11:46.199Z,31.60
2023-03-14T01:12:46.190Z,29.90
2023-03-14T01:13:46.204Z,29.50
2023-03-14T01:14:46.207Z,28.90
2023-03-14T01:15:46.204Z,27.80
2023-03-14T01:16:46.187Z,27.40
2023-03-14T01:17:46.152Z,28.00
2023-03-14T01:18:46.132Z,29.50
2023-03-14T01:19:46.155Z,28.30
2023-03-14T01:20:46.107Z,27.60
2023-03-14T01:21:46.295Z,26.50
2023-03-14T01:22:46.100Z,25.60
2023-03-14T01:23:46.077Z,28.50
2023-03-14T01:24:46.082Z,26.80
2023-03-14T01:25:46.052Z,24.50
2023-03-14T01:26:46.051Z,23.70
2023-03-14T01:27:46.035Z,23.70
2023-03-14T01:28:46.020Z,22.70
2023-03-14T01:29:46.037Z,23.80
2023-03-14T01:30:46.102Z,24.10
2023-03-14T01:31:46.008Z,24.40
2023-03-14T01:32:46.182Z,25.60
2023-03-14T01:33:45.972Z,22.40
2023-03-14T01:34:46.019Z,22.90
2023-03-14T01:35:45.987Z,24.20
2023-03-14T01:36:45.974Z,23.00
2023-03-14T01:37:45.950Z,23.30
2023-03-14T01:38:45.923Z,23.00
2023-03-14T01:39:45.928Z,25.40
2023-03-14T01:40:45.966Z,28.10
2023-03-14T01:41:45.893Z,30.30
2023-03-14T01:42:45.892Z,30.50
2023-03-14T01:43:45.876Z,36.60
2023-03-14T01:44:45.863Z,37.90
2023-03-14T01:45:45.906Z,34.10
2023-03-14T01:46:45.821Z,43.20
2023-03-14T01:47:45.836Z,53.10
2023-03-14T01:48:45.815Z,58.20
2023-03-14T01:49:45.852Z,74.00
2023-03-14T01:50:45.797Z,79.70
2023-03-14T01:51:45.813Z,81.60
2023-03-14T01:52:45.777Z,84.90
2023-03-14T01:53:45.872Z,88.20
2023-03-14T01:54:45.794Z,92.00
2023-03-14T01:55:45.739Z,88.90
2023-03-14T01:56:52.278Z,87.00
2023-03-14T01:57:45.737Z,87.90
2023-03-14T01:58:45.756Z,90.80
2023-03-14T01:59:45.721Z,93.90
2023-03-14T02:00:45.777Z,91.90
2023-03-14T02:01:45.680Z,92.40
2023-03-14T02:02:45.685Z,92.50
2023-03-14T02:03:45.706Z,87.90
2023-03-14T02:04:45.701Z,94.10
2023-03-14T02:05:45.643Z,90.70
2023-03-14T02:06:45.710Z,94.00
2023-03-14T02:07:45.613Z,90.20
2023-03-14T02:08:45.595Z,94.20
2023-03-14T02:09:45.650Z,86.70
2023-03-14T02:10:45.565Z,85.70
2023-03-14T02:11:45.569Z,91.60
2023-03-14T02:12:45.562Z,88.30
2023-03-14T02:13:45.547Z,92.00
2023-03-14T02:14:45.548Z,95.40
2023-03-14T02:15:45.564Z,88.70
2023-03-14T02:16:45.624Z,84.10
2023-03-14T02:17:45.506Z,94.70
2023-03-14T02:18:45.489Z,95.30
2023-03-14T02:19:45.499Z,96.40
2023-03-14T02:20:45.473Z,90.60
2023-03-14T02:21:45.488Z,91.60
2023-03-14T02:22:45.534Z,87.00
2023-03-14T02:23:45.516Z,83.30
2023-03-14T02:24:45.446Z,78.80
2023-03-14T02:25:45.422Z,77.50
2023-03-14T02:26:45.438Z,80.30
2023-03-14T02:27:45.417Z,73.70
2023-03-14T02:28:45.396Z,67.70
2023-03-14T02:29:45.420Z,68.70
2023-03-14T02:30:45.354Z,68.50
2023-03-14T02:31:45.414Z,62.80
2023-03-14T02:32:45.419Z,63.30
2023-03-14T02:33:45.359Z,61.20
2023-03-14T02:34:45.388Z,57.00
2023-03-14T02:35:45.344Z,60.90
2023-03-14T02:36:45.343Z,53.80
2023-03-14T02:37:45.298Z,52.60
2023-03-14T02:38:45.307Z,48.90
2023-03-14T02:39:45.373Z,50.90
2023-03-14T02:40:45.249Z,49.60
2023-03-14T02:41:45.263Z,49.70
2023-03-14T02:42:45.220Z,50.10
2023-03-14T02:43:45.229Z,48.70
2023-03-14T02:44:45.221Z,51.00
2023-03-14T02:45:45.268Z,52.80
2023-03-14T02:46:45.195Z,49.00
2023-03-14T02:47:45.180Z,51.90
2023-03-14T02:48:45.189Z,48.50
2023-03-14T02:49:45.172Z,47.30
2023-03-14T02:50:45.153Z,46.80
2023-03-14T02:51:45.139Z,47.60
2023-03-14T02:52:45.104Z,44.10
2023-03-14T02:53:45.118Z,43.20
2023-03-14T02:54:45.120Z,44.20
2023-03-14T02:55:45.164Z,45.20
2023-03-14T02:56:45.123Z,45.60
2023-03-14T02:57:45.067Z,49.40
2023-03-14T02:58:45.048Z,42.80
2023-03-14T02:59:45.050Z,49.90
2023-03-14T03:00:45.087Z,48.10
2023-03-14T03:01:45.021Z,44.10
2023-03-14T03:02:45.056Z,47.70
2023-03-14T03:03:45.162Z,46.20
2023-03-14T03:04:45.004Z,48.00
2023-03-14T03:05:45.032Z,48.50
2023-03-14T03:06:44.972Z,46.30
2023-03-14T03:07:44.984Z,48.80
2023-03-14T03:08:44.938Z,45.00
2023-03-14T03:09:44.932Z,48.00
2023-03-14T03:10:44.939Z,51.00
2023-03-14T03:11:44.949Z,48.00
2023-03-14T03:12:44.889Z,46.90
2023-03-14T03:13:44.915Z,49.50
2023-03-14T03:14:44.922Z,45.90
2023-03-14T03:15:44.897Z,46.90
2023-03-14T03:16:44.888Z,47.30
2023-03-14T03:17:51.501Z,43.80
2023-03-14T03:18:44.835Z,48.30
2023-03-14T03:19:44.850Z,43.60
2023-03-14T03:20:44.852Z,43.80
2023-03-14T03:21:44.841Z,44.70
2023-03-14T03:22:44.845Z,44.20
2023-03-14T03:23:44.784Z,44.80
2023-03-14T03:24:44.779Z,41.30
2023-03-14T03:25:44.825Z,41.00
2023-03-14T03:26:44.772Z,39.50
2023-03-14T03:27:44.746Z,41.00
2023-03-14T03:28:44.745Z,39.30
2023-03-14T03:29:44.748Z,40.80
2023-03-14T03:30:44.866Z,40.00
2023-03-14T03:31:44.777Z,37.30
2023-03-14T03:32:44.725Z,38.10
2023-03-14T03:33:44.703Z,41.20
2023-03-14T03:34:44.699Z,41.20
2023-03-14T03:35:44.744Z,42.60
2023-03-14T03:36:44.666Z,44.00
2023-03-14T03:37:44.647Z,45.60
2023-03-14T03:38:44.644Z,42.20
2023-03-14T03:39:44.626Z,42.40
2023-03-14T03:40:44.658Z,42.00
2023-03-14T03:41:44.672Z,42.00
2023-03-14T03:42:44.593Z,45.50
2023-03-14T03:43:44.636Z,44.30
2023-03-14T03:44:44.577Z,43.60
2023-03-14T03:45:44.670Z,43.30
2023-03-14T03:46:44.589Z,47.00
2023-03-14T03:47:44.569Z,46.00
2023-03-14T03:50:11.758Z,46.60
2023-03-14T03:50:16.818Z,46.40
2023-03-14T03:51:16.807Z,49.50
2023-03-14T03:52:16.776Z,47.90
2023-03-14T03:53:26.846Z,48.10
2023-03-14T03:54:16.765Z,48.80
2023-03-14T03:55:16.733Z,49.00
2023-03-14T03:56:16.812Z,51.00
2023-03-14T03:57:16.719Z,50.00
2023-03-14T03:58:16.704Z,50.90
2023-03-14T03:59:16.691Z,52.70
2023-03-14T04:00:16.740Z,48.70
2023-03-14T04:01:16.703Z,51.40
2023-03-14T04:02:16.727Z,49.90
2023-03-14T04:03:16.712Z,50.70
2023-03-14T04:04:16.720Z,53.20
2023-03-14T04:05:16.625Z,49.30
2023-03-14T04:06:16.719Z,49.90
2023-03-14T04:07:16.625Z,51.20
2023-03-14T04:08:16.618Z,53.30
2023-03-14T04:09:16.610Z,55.60
2023-03-14T04:10:16.601Z,55.40
2023-03-14T04:11:18.196Z,55.40
2023-03-14T04:12:16.562Z,53.80
2023-03-14T04:13:16.541Z,52.70
2023-03-14T04:14:16.568Z,56.00
2023-03-14T04:15:16.539Z,51.80
2023-03-14T04:16:16.597Z,55.40
2023-03-14T04:17:16.599Z,51.80
2023-03-14T04:18:16.535Z,51.00
2023-03-14T04:19:16.511Z,51.20
2023-03-14T04:20:16.472Z,52.00
2023-03-14T04:21:16.479Z,48.30
2023-03-14T04:22:16.501Z,51.50
2023-03-14T04:23:16.456Z,46.90
2023-03-14T04:24:16.438Z,48.00
2023-03-14T04:25:16.473Z,49.20
2023-03-14T04:26:16.650Z,47.80
2023-03-14T04:27:16.424Z,47.90
2023-03-14T04:28:16.381Z,48.90
2023-03-14T04:29:16.381Z,49.80
2023-03-14T04:30:16.372Z,50.30
2023-03-14T04:31:16.450Z,47.20
2023-03-14T04:32:16.351Z,49.80
2023-03-14T04:33:16.346Z,49.60
2023-03-14T04:36:32.189Z,49.00
2023-03-14T04:37:39.697Z,48.80
2023-03-14T04:38:39.690Z,51.70
2023-03-14T04:39:33.124Z,50.10
2023-03-14T04:40:33.101Z,51.00
2023-03-14T04:41:33.136Z,50.00
2023-03-14T04:42:33.082Z,48.20
2023-03-14T04:43:33.066Z,44.70
2023-03-14T04:44:33.194Z,43.80
2023-03-14T04:45:33.053Z,46.10
2023-03-14T04:46:33.112Z,44.20
2023-03-14T04:47:33.048Z,41.20
2023-03-14T04:48:33.054Z,41.90
2023-03-14T04:49:33.055Z,40.60
2023-03-14T04:50:33.006Z,39.60
2023-03-14T04:51:33.054Z,42.60
2023-03-14T04:52:32.980Z,40.90
2023-03-14T04:53:33.308Z,42.10
2023-03-14T04:54:32.992Z,40.90
2023-03-14T04:55:32.959Z,41.40
2023-03-14T04:56:32.951Z,42.60
2023-03-14T04:57:32.961Z,41.20
2023-03-14T04:58:32.914Z,43.10
2023-03-14T04:59:32.903Z,44.90
2023-03-14T05:00:32.918Z,42.60
2023-03-14T05:01:32.975Z,44.20
2023-03-14T05:02:32.918Z,42.00
2023-03-14T05:03:32.861Z,41.80
2023-03-14T05:04:32.848Z,39.30
2023-03-14T05:05:32.867Z,40.20
2023-03-14T05:06:32.820Z,41.80
2023-03-14T05:07:32.844Z,43.70
2023-03-14T05:08:32.817Z,41.60
2023-03-14T05:09:32.786Z,40.40
2023-03-14T05:10:32.786Z,40.50
2023-03-14T05:11:32.800Z,42.80
2023-03-14T05:12:32.818Z,39.70
2023-03-14T05:13:32.770Z,42.50
2023-03-14T05:14:32.739Z,43.70
2023-03-14T05:15:32.722Z,41.90
2023-03-14T05:16:32.767Z,43.10
2023-03-14T05:17:32.755Z,41.30
2023-03-14T05:18:32.692Z,38.40
2023-03-14T05:19:34.936Z,41.30
2023-03-14T05:20:32.698Z,36.60
2023-03-14T05:21:32.623Z,38.00
2023-03-14T05:22:32.645Z,36.40
2023-03-14T05:23:32.585Z,38.90
2023-03-14T05:24:32.569Z,42.40
2023-03-14T05:25:39.147Z,41.40
2023-03-14T05:26:32.581Z,45.70
2023-03-14T05:27:32.587Z,44.90
2023-03-14T05:28:32.544Z,41.90
2023-03-14T05:29:32.535Z,43.60
2023-03-14T05:30:32.527Z,43.70
2023-03-14T05:43:26.015Z,59.90
2023-03-14T05:44:25.565Z,60.10
2023-03-14T05:45:25.598Z,56.60
2023-03-14T05:46:25.590Z,58.90
2023-03-14T05:47:25.577Z,55.10
2023-03-14T05:48:25.518Z,52.80
2023-03-14T05:49:25.534Z,56.60
2023-03-14T05:50:25.527Z,59.00
2023-03-14T05:51:25.497Z,59.30
2023-03-14T05:52:25.519Z,57.90
2023-03-14T05:53:25.496Z,56.90
2023-03-14T05:54:25.464Z,54.80
2023-03-14T05:55:25.486Z,57.70
2023-03-14T05:56:25.467Z,53.40
2023-03-14T05:57:25.503Z,59.80
2023-03-14T05:58:25.418Z,54.70
2023-03-14T05:59:25.439Z,50.50
2023-03-14T06:00:25.389Z,55.90
2023-03-14T06:01:25.635Z,52.00
2023-03-14T06:02:25.497Z,52.10
2023-03-14T06:03:25.531Z,54.20
2023-03-14T06:04:25.366Z,52.60
2023-03-14T06:05:25.363Z,51.70
2023-03-14T06:06:25.386Z,51.30
2023-03-14T06:07:25.424Z,61.00
2023-03-14T06:08:25.328Z,67.40
2023-03-14T06:09:25.338Z,65.40
2023-03-14T06:10:25.309Z,79.20
2023-03-14T06:11:25.313Z,81.80
2023-03-14T06:12:25.289Z,92.20
2023-03-14T06:13:25.285Z,102.40
2023-03-14T06:14:25.299Z,104.00
2023-03-14T06:15:25.265Z,94.60
2023-03-14T06:16:25.279Z,96.90
2023-03-14T06:17:25.238Z,92.80
2023-03-14T06:18:25.268Z,91.50
2023-03-14T06:19:25.206Z,95.50
2023-03-14T06:20:25.178Z,95.80
2023-03-14T06:21:25.184Z,100.80
2023-03-14T06:22:25.244Z,99.80
2023-03-14T06:23:25.194Z,104.70
2023-03-14T06:24:25.146Z,114.20
2023-03-14T06:25:25.140Z,122.50
2023-03-14T06:26:25.145Z,125.10
2023-03-14T06:27:25.115Z,133.40
2023-03-14T06:28:26.201Z,131.00
2023-03-14T06:29:25.116Z,129.50
2023-03-14T06:30:25.104Z,129.20
2023-03-14T06:31:25.079Z,131.90
2023-03-14T06:32:25.108Z,137.00
2023-03-14T06:33:25.065Z,135.50
2023-03-14T06:34:25.031Z,136.90
2023-03-14T06:35:32.582Z,137.80
2023-03-14T06:36:31.613Z,142.10
2023-03-14T06:37:31.548Z,140.70
2023-03-14T06:38:25.019Z,142.60
2023-03-14T06:39:25.071Z,143.50
2023-03-14T06:40:24.983Z,146.00
2023-03-14T06:41:24.964Z,144.50
2023-03-14T06:42:25.005Z,151.00
2023-03-14T06:43:25.037Z,149.60
2023-03-14T06:44:24.951Z,145.30
2023-03-14T06:45:24.941Z,146.60
2023-03-14T06:46:24.953Z,144.70
2023-03-14T06:47:24.904Z,146.20
2023-03-14T06:48:24.918Z,153.20
2023-03-14T06:49:24.902Z,158.00
2023-03-14T06:50:24.866Z,159.40
2023-03-14T06:51:24.898Z,162.20
2023-03-14T06:52:25.006Z,160.00
2023-03-14T06:53:24.879Z,168.60
2023-03-14T06:54:24.820Z,161.70
2023-03-14T06:55:24.853Z,173.90
2023-03-14T06:56:24.821Z,174.50
2023-03-14T06:57:24.820Z,169.80
2023-03-14T06:58:24.811Z,173.90
2023-03-14T06:59:24.783Z,171.70
2023-03-14T07:00:24.771Z,172.60
2023-03-14T07:01:24.844Z,175.20
2023-03-14T07:02:36.046Z,170.00
2023-03-14T07:03:24.804Z,174.30
2023-03-14T07:04:24.827Z,171.20
2023-03-14T07:05:24.721Z,177.50
2023-03-14T07:06:24.701Z,172.20
2023-03-14T07:07:24.710Z,181.40
2023-03-14T07:08:24.712Z,178.00
2023-03-14T07:09:24.683Z,170.80
2023-03-14T07:10:24.658Z,171.80
2023-03-14T07:11:24.764Z,170.50
2023-03-14T07:12:24.665Z,168.40
2023-03-14T07:13:24.674Z,170.40
2023-03-14T07:14:24.650Z,169.60
2023-03-14T07:15:24.610Z,171.70
2023-03-14T07:16:24.716Z,174.40
2023-03-14T07:17:24.635Z,183.00
2023-03-14T07:18:24.614Z,180.90
2023-03-14T07:19:24.579Z,181.60
2023-03-14T07:20:24.594Z,185.80
2023-03-14T07:21:24.547Z,183.90
2023-03-14T07:22:24.667Z,183.50
2023-03-14T07:23:24.558Z,180.30
2023-03-14T07:24:24.509Z,173.90
2023-03-14T07:25:24.504Z,174.90
2023-03-14T07:26:24.492Z,169.70
2023-03-14T07:27:24.489Z,170.70
2023-03-14T07:28:24.525Z,171.90
2023-03-14T07:29:24.485Z,171.30
2023-03-14T07:30:24.457Z,181.70
2023-03-14T07:31:24.493Z,177.80
2023-03-14T07:32:24.526Z,179.80
2023-03-14T07:33:24.446Z,176.90
2023-03-14T07:34:24.407Z,176.40
2023-03-14T07:35:24.431Z,176.40
2023-03-14T07:36:24.389Z,177.60
2023-03-14T07:37:24.456Z,178.80
2023-03-14T07:38:24.412Z,179.70
2023-03-14T07:39:24.411Z,181.40
2023-03-14T07:40:24.410Z,177.20
2023-03-14T07:41:24.376Z,180.70
2023-03-14T07:42:24.374Z,183.10
2023-03-14T07:43:24.353Z,173.40
2023-03-14T07:44:24.341Z,170.00
2023-03-14T07:45:25.182Z,171.80
2023-03-14T07:46:24.385Z,163.30
2023-03-14T07:47:24.361Z,159.70
2023-03-14T07:48:24.324Z,161.10
2023-03-14T07:49:24.291Z,166.30
2023-03-14T07:50:24.266Z,166.00
2023-03-14T07:51:24.244Z,168.50
2023-03-14T07:52:24.228Z,168.60
2023-03-14T07:53:24.248Z,161.40
2023-03-14T07:54:24.205Z,164.10
2023-03-14T07:55:24.216Z,161.40
2023-03-14T07:56:24.229Z,162.40
2023-03-14T07:57:24.188Z,167.20
2023-03-14T07:58:24.219Z,161.90
2023-03-14T07:59:24.169Z,169.10
2023-03-14T08:00:24.191Z,181.10
2023-03-14T08:01:24.156Z,170.90
2023-03-14T08:02:24.194Z,173.50
2023-03-14T08:03:24.158Z,170.80
2023-03-14T08:04:24.140Z,172.70
2023-03-14T08:05:24.142Z,167.60
2023-03-14T08:06:24.117Z,168.90
2023-03-14T08:07:24.163Z,165.40
2023-03-14T08:08:24.089Z,167.40
2023-03-14T08:09:24.072Z,166.40
2023-03-14T08:10:24.062Z,170.60
2023-03-14T08:11:24.032Z,174.10
2023-03-14T08:12:24.080Z,185.10
2023-03-14T08:13:24.059Z,181.90
2023-03-14T08:14:24.074Z,181.20
2023-03-14T08:15:24.017Z,187.60
2023-03-14T08:16:24.029Z,185.00
2023-03-14T08:17:23.980Z,184.70
2023-03-14T08:18:24.019Z,189.10
2023-03-14T08:19:23.997Z,182.40
2023-03-14T08:20:23.945Z,182.60
2023-03-14T08:21:23.939Z,179.80
2023-03-14T08:22:23.965Z,192.70
2023-03-14T08:23:23.908Z,189.80
2023-03-14T08:24:23.928Z,183.80
2023-03-14T08:25:23.903Z,175.70
2023-03-14T08:26:23.902Z,168.20
2023-03-14T08:27:23.858Z,175.70
2023-03-14T08:28:23.905Z,178.00
2023-03-14T08:29:24.011Z,177.90
2023-03-14T08:30:23.956Z,172.60
2023-03-14T08:31:24.013Z,169.10
2023-03-14T08:32:23.884Z,162.90
2023-03-14T08:33:23.798Z,160.80
2023-03-14T08:34:23.859Z,159.60
2023-03-14T08:35:23.811Z,160.60
2023-03-14T08:36:24.320Z,155.70
2023-03-14T08:37:26.916Z,158.90
2023-03-14T08:38:23.813Z,163.90
2023-03-14T08:39:23.851Z,162.90
2023-03-14T08:40:23.801Z,160.70
2023-03-14T08:41:23.744Z,163.10
2023-03-14T08:42:23.743Z,161.00
2023-03-14T08:43:23.698Z,163.00
2023-03-14T08:44:23.743Z,166.90
2023-03-14T08:45:23.688Z,163.80
2023-03-14T08:46:23.771Z,162.80
2023-03-14T08:47:23.646Z,162.40
2023-03-14T08:48:31.157Z,161.70
2023-03-14T08:49:23.699Z,163.30
2023-03-14T08:54:09.311Z,160.00
2023-03-14T08:55:08.876Z,159.30
2023-03-14T08:56:08.889Z,157.20
2023-03-14T08:57:08.855Z,156.60
2023-03-14T08:58:08.828Z,158.60
2023-03-14T08:59:08.846Z,155.70
2023-03-14T09:00:08.861Z,147.80
2023-03-14T09:01:08.841Z,144.70
2023-03-14T09:02:08.784Z,136.90
2023-03-14T09:03:08.813Z,142.50
2023-03-14T09:04:08.799Z,145.70
2023-03-14T09:05:08.790Z,144.40
2023-03-14T09:06:08.764Z,141.90
2023-03-14T09:07:08.795Z,150.70
2023-03-14T09:08:08.778Z,153.50
2023-03-14T09:09:08.784Z,155.60
2023-03-14T09:10:08.722Z,152.50
2023-03-14T09:11:08.802Z,160.00
2023-03-14T09:12:08.752Z,166.10
2023-03-14T09:13:08.698Z,163.10
2023-03-14T09:14:08.672Z,163.10
2023-03-14T09:15:08.721Z,159.60
2023-03-14T09:16:08.742Z,168.60
2023-03-14T09:17:08.708Z,167.50
2023-03-14T09:18:08.691Z,165.70
2023-03-14T09:19:08.628Z,175.50
2023-03-14T09:20:08.652Z,181.50
2023-03-14T09:21:08.612Z,162.90
2023-03-14T09:22:08.583Z,117.10
2023-03-14T09:23:08.567Z,112.50
2023-03-14T09:24:08.576Z,87.30
2023-03-14T09:25:08.618Z,75.80
2023-03-14T09:26:08.586Z,79.60
2023-03-14T09:27:08.573Z,85.70
2023-03-14T09:28:08.550Z,103.90
2023-03-14T09:29:08.530Z,92.10
2023-03-14T09:30:08.516Z,103.30
2023-03-14T09:31:08.519Z,100.70
2023-03-14T09:32:08.543Z,104.90
2023-03-14T09:33:08.476Z,120.20
2023-03-14T09:34:08.475Z,135.70
2023-03-14T09:35:08.481Z,137.10
2023-03-14T09:36:08.446Z,134.90
2023-03-14T09:37:08.485Z,148.90
2023-03-14T09:38:08.522Z,136.10
2023-03-14T09:39:08.569Z,136.70
2023-03-14T09:40:09.324Z,149.80
2023-03-14T09:41:08.569Z,152.70
2023-03-14T09:42:08.387Z,149.20
2023-03-14T09:43:08.392Z,144.20
2023-03-14T09:44:08.444Z,118.70
2023-03-14T09:45:08.391Z,112.50
2023-03-14T09:46:08.385Z,85.70
2023-03-14T09:47:08.340Z,82.70
2023-03-14T09:48:08.310Z,110.40
2023-03-14T09:49:08.301Z,108.60
2023-03-14T09:50:16.320Z,121.90
2023-03-14T09:51:14.833Z,119.30
2023-03-14T09:52:15.299Z,134.30
2023-03-14T09:53:08.272Z,120.50
2023-03-14T09:54:08.255Z,123.60
2023-03-14T09:55:08.262Z,128.00
2023-03-14T09:56:08.236Z,120.60
2023-03-14T09:57:08.227Z,143.20
2023-03-14T09:58:08.260Z,147.50
2023-03-14T09:59:08.202Z,146.60
2023-03-14T10:00:08.234Z,149.20
2023-03-14T10:01:08.259Z,160.80
2023-03-14T10:02:08.198Z,151.80
2023-03-14T10:03:08.157Z,147.20
2023-03-14T10:04:08.213Z,139.00
2023-03-14T10:05:08.169Z,133.30
2023-03-14T10:06:08.139Z,119.30
2023-03-14T10:07:08.140Z,120.90
2023-03-14T10:08:08.116Z,111.10
2023-03-14T10:09:08.252Z,78.30
2023-03-14T10:10:08.108Z,42.20
2023-03-14T10:11:08.204Z,36.90
2023-03-14T10:12:09.330Z,48.20
2023-03-14T10:13:08.054Z,53.90
2023-03-14T10:14:08.159Z,52.70
2023-03-14T10:15:08.053Z,52.20
2023-03-14T10:16:08.025Z,45.80
2023-03-14T10:17:08.186Z,23.30
2023-03-14T10:18:08.008Z,29.00
2023-03-14T10:19:08.015Z,32.00
2023-03-14T10:20:08.017Z,35.00
2023-03-14T10:21:08.105Z,38.40
2023-03-14T10:22:07.969Z,37.50
2023-03-14T10:23:07.951Z,26.20
2023-03-14T10:24:07.960Z,20.40
2023-03-14T10:25:08.054Z,29.10
2023-03-14T10:26:08.272Z,19.00
2023-03-14T10:27:08.703Z,27.90
2023-03-14T10:28:08.056Z,32.70
2023-03-14T10:29:07.879Z,28.90
2023-03-14T10:30:07.964Z,22.70
2023-03-14T10:31:08.052Z,11.70
2023-03-14T10:32:07.914Z,8.10
2023-03-14T10:33:07.866Z,11.40
2023-03-14T10:34:07.846Z,7.40
2023-03-14T10:35:07.958Z,4.80
2023-03-14T10:36:07.861Z,7.30
2023-03-14T10:37:08.065Z,9.10
2023-03-14T10:38:07.816Z,8.40
2023-03-14T10:39:07.830Z,5.10
2023-03-14T10:40:07.888Z,7.60
2023-03-14T10:41:07.817Z,7.70
2023-03-14T10:42:07.806Z,3.70
2023-03-14T10:43:07.740Z,1.90
2023-03-14T10:44:07.788Z,1.60
2023-03-14T10:45:07.861Z,1.60
2023-03-14T10:46:07.785Z,2.30
2023-03-14T10:47:07.770Z,2.40
2023-03-14T10:48:07.785Z,1.10
2023-03-14T10:49:07.699Z,1.00
2023-03-14T10:50:07.847Z,1.00
2023-03-14T10:51:07.663Z,1.70
2023-03-14T10:52:07.655Z,1.60
2023-03-14T10:53:07.801Z,1.60
2023-03-14T10:54:07.630Z,2.30
2023-03-14T10:55:07.803Z,1.30
2023-03-14T10:56:07.636Z,1.70
2023-03-14T10:57:07.611Z,3.80
2023-03-14T10:58:07.585Z,2.40
2023-03-14T10:59:07.586Z,1.80
2023-03-14T11:00:07.636Z,2.60
2023-03-14T11:01:07.629Z,3.40
2023-03-14T11:02:07.545Z,2.70
2023-03-14T11:03:07.551Z,3.80
2023-03-14T11:04:07.524Z,4.30
2023-03-14T11:05:07.764Z,3.10
2023-03-14T11:06:07.610Z,1.60
2023-03-14T11:07:07.494Z,1.00
2023-03-14T11:08:08.753Z,0.80
2023-03-14T11:09:07.498Z,0.80
2023-03-14T11:10:07.468Z,0.90
2023-03-14T11:11:07.488Z,1.30
2023-03-14T11:12:07.491Z,1.70
2023-03-14T11:13:07.435Z,3.40
2023-03-14T11:14:07.419Z,4.40
2023-03-14T11:15:07.426Z,1.20
2023-03-14T11:16:07.507Z,0.90
2023-03-14T11:17:07.395Z,1.50
2023-03-14T11:18:07.469Z,2.10
2023-03-14T11:19:07.507Z,2.10
2023-03-14T11:20:07.708Z,1.00
2023-03-14T11:21:07.482Z,1.10
2023-03-14T11:22:07.387Z,0.80
2023-03-14T11:23:07.527Z,0.90
2023-03-14T11:24:07.481Z,1.60
2023-03-14T11:25:07.504Z,1.90
2023-03-14T11:26:16.378Z,1.00
2023-03-14T11:27:07.589Z,1.10
2023-03-14T11:28:07.295Z,1.20
2023-03-14T11:29:07.350Z,0.80
2023-03-14T11:30:07.259Z,1.10
2023-03-14T11:31:07.311Z,1.90
2023-03-14T11:32:07.809Z,0.90
2023-03-14T11:33:07.731Z,0.90
2023-03-14T11:34:07.612Z,1.00
2023-03-14T11:35:07.556Z,0.90
2023-03-14T11:36:07.616Z,1.40
2023-03-14T11:37:07.233Z,1.20
2023-03-14T11:38:07.246Z,1.50
2023-03-14T11:39:07.511Z,1.00
2023-03-14T11:40:07.253Z,0.80
2023-03-14T11:41:07.218Z,0.90
2023-03-14T11:42:07.182Z,1.00
2023-03-14T11:43:07.202Z,0.40
2023-03-14T11:44:07.171Z,0.80
2023-03-14T11:45:07.190Z,0.80
2023-03-14T11:46:07.450Z,1.10
2023-03-14T11:47:07.225Z,1.20
2023-03-14T11:48:07.136Z,0.80
2023-03-14T11:49:07.171Z,0.60
2023-03-14T11:50:07.138Z,0.70
2023-03-14T11:51:07.162Z,0.70
2023-03-14T11:52:07.062Z,0.90
2023-03-14T11:53:07.258Z,0.80
2023-03-14T11:54:07.303Z,0.70
2023-03-14T11:57:22.801Z,0.90
2023-03-14T11:58:23.804Z,0.90
2023-03-14T11:59:23.767Z,0.60
2023-03-14T12:00:23.782Z,0.80
2023-03-14T12:01:23.759Z,1.10
2023-03-14T12:02:23.977Z,0.50
2023-03-14T12:05:13.110Z,1.00
2023-03-14T12:06:14.194Z,0.80
2023-03-14T12:07:14.069Z,0.90
2023-03-14T12:09:25.198Z,0.40
2023-03-14T12:10:26.173Z,0.60
2023-03-14T12:11:26.185Z,0.70
2023-03-14T12:12:26.338Z,1.00
2023-03-14T12:13:26.213Z,1.00
2023-03-14T12:14:26.240Z,0.90
2023-03-14T12:15:26.113Z,1.20
2023-03-14T12:16:26.224Z,1.00
2023-03-14T12:17:26.093Z,3.60
2023-03-14T12:18:26.075Z,6.30
2023-03-14T12:19:26.063Z,6.80
2023-03-14T12:20:26.050Z,3.10
2023-03-14T12:21:26.172Z,5.70
2023-03-14T12:22:26.033Z,4.00
2023-03-14T12:23:26.032Z,1.70
2023-03-14T12:24:26.024Z,3.20
2023-03-14T12:25:26.085Z,5.50
2023-03-14T12:26:26.015Z,11.10
2023-03-14T12:27:26.090Z,8.80
2023-03-14T12:28:25.971Z,7.70
2023-03-14T12:29:25.966Z,2.60
2023-03-14T12:30:25.976Z,2.50
2023-03-14T12:31:25.994Z,2.70
2023-03-14T12:32:26.074Z,3.20
2023-03-14T12:33:25.991Z,3.80
2023-03-14T12:34:25.907Z,3.90
2023-03-14T12:35:25.953Z,9.20
2023-03-14T12:36:25.961Z,8.70
2023-03-14T12:37:25.924Z,3.10
2023-03-14T12:38:25.868Z,4.70
2023-03-14T12:39:25.894Z,4.40
2023-03-14T12:40:25.853Z,2.80
2023-03-14T12:41:25.869Z,2.20
2023-03-14T12:42:29.680Z,1.20
2023-03-14T12:43:25.991Z,1.10
2023-03-14T12:44:25.809Z,2.90
2023-03-14T12:45:25.814Z,4.50
2023-03-14T12:46:25.951Z,7.90
2023-03-14T12:47:26.807Z,6.90
2023-03-14T12:48:25.874Z,4.20
2023-03-14T12:49:26.144Z,2.50
2023-03-14T12:50:25.783Z,2.80
2023-03-14T12:51:25.860Z,2.50
2023-03-14T12:52:25.773Z,3.90
2023-03-14T12:53:25.766Z,3.80
2023-03-14T12:54:25.722Z,4.00
2023-03-14T12:55:25.702Z,2.10
2023-03-14T12:56:25.799Z,3.50
2023-03-14T12:57:33.377Z,3.40
2023-03-14T12:58:25.671Z,2.40
2023-03-14T12:59:25.663Z,3.50
2023-03-14T13:00:25.646Z,6.60
2023-03-14T13:01:25.741Z,2.60
2023-03-14T13:02:25.687Z,1.80
2023-03-14T13:03:25.642Z,1.70
2023-03-14T13:04:36.863Z,2.90
2023-03-14T13:05:26.504Z,3.50
2023-03-14T13:06:25.648Z,4.40
2023-03-14T13:07:26.325Z,4.60
2023-03-14T13:08:25.616Z,4.50
2023-03-14T13:09:25.574Z,2.00
2023-03-14T13:10:25.640Z,1.80
2023-03-14T13:11:25.581Z,1.00
2023-03-14T13:12:25.544Z,1.10
2023-03-14T13:13:25.519Z,0.90
2023-03-14T13:14:25.561Z,1.50
2023-03-14T13:15:25.525Z,0.90
2023-03-14T13:16:25.754Z,1.30
2023-03-14T13:17:35.467Z,1.10
2023-03-14T13:18:25.477Z,0.90
2023-03-14T13:19:25.532Z,1.80
2023-03-14T13:26:32.214Z,0.80
2023-03-14T13:27:33.236Z,0.70